Terminal Aerodrome Forecast
Issued by NWS

Home | Current Version | Previous Version | Text Only | Print | Product List | Glossary On
Versions: 1 2 3 4 5 6 7 8 9 10 11 12 13 14 15 16 17 18 19
000
FTUS41 KPHI 261436 AAA
TAFPNE
TAF AMD
KPNE 261436Z 2615/2712 09010G18KT P6SM OVC015
     FM270000 09011KT 5SM BR OVC010
     FM270300 09007KT 4SM BR OVC005
     FM270800 15006KT 4SM -RA BR OVC005=

USA.gov is the U.S. government's official web portal to all federal, state and local government web resources and services.